createdAt,value
2023-03-05T00:02:00.641Z,100303.75
2023-03-05T00:04:27.890Z,100304.22
2023-03-05T00:06:55.763Z,100295.38
2023-03-05T00:09:23.005Z,100310.91
2023-03-05T00:11:50.251Z,100307.97
2023-03-05T00:14:17.531Z,100302.50
2023-03-05T00:16:44.789Z,100299.81
2023-03-05T00:19:13.378Z,100300.53
2023-03-05T00:21:42.088Z,100292.63
2023-03-05T00:24:12.058Z,100299.81
2023-03-05T00:26:39.862Z,100304.81
2023-03-05T00:29:07.586Z,100297.66
2023-03-05T00:31:35.534Z,100293.47
2023-03-05T00:34:03.857Z,100288.63
2023-03-05T00:36:32.744Z,100289.63
2023-03-05T00:39:00.460Z,100289.81
2023-03-05T00:41:28.097Z,100291.75
2023-03-05T00:43:55.759Z,100281.59
2023-03-05T00:46:23.140Z,100272.44
2023-03-05T00:48:50.576Z,100281.53
2023-03-05T00:51:17.882Z,100268.84
2023-03-05T00:53:46.817Z,100280.94
2023-03-05T00:56:14.106Z,100267.94
2023-03-05T00:58:41.366Z,100273.16
2023-03-05T01:01:08.702Z,100268.19
2023-03-05T01:03:36.238Z,100267.88
2023-03-05T01:06:05.662Z,100263.59
2023-03-05T01:08:32.918Z,100261.09
2023-03-05T01:11:01.575Z,100257.19
2023-03-05T01:13:28.830Z,100253.94
2023-03-05T01:15:56.077Z,100257.88
2023-03-05T01:18:23.670Z,100242.16
2023-03-05T01:20:50.937Z,100247.41
2023-03-05T01:23:18.308Z,100247.91
2023-03-05T01:25:45.629Z,100239.69
2023-03-05T01:28:14.272Z,100241.91
2023-03-05T01:30:41.538Z,100246.78
2023-03-05T01:33:08.801Z,100245.31
2023-03-05T01:35:36.071Z,100229.47
2023-03-05T01:38:03.338Z,100231.38
2023-03-05T01:40:31.386Z,100225.56
2023-03-05T01:43:00.427Z,100223.16
2023-03-05T01:45:31.366Z,100223.44
2023-03-05T01:47:58.646Z,100222.63
2023-03-05T01:50:27.139Z,100226.94
2023-03-05T01:52:55.753Z,100223.66
2023-03-05T01:55:23.937Z,100217.56
2023-03-05T01:57:54.201Z,100216.03
2023-03-05T02:00:23.533Z,100222.19
2023-03-05T02:02:52.357Z,100215.72
2023-03-05T02:05:20.756Z,100221.56
2023-03-05T02:07:48.217Z,100223.91
2023-03-05T02:10:16.445Z,100220.44
2023-03-05T02:12:43.912Z,100222.00
2023-03-05T02:15:12.569Z,100211.47
2023-03-05T02:17:39.997Z,100209.66
2023-03-05T02:20:11.348Z,100208.72
2023-03-05T02:22:39.933Z,100209.66
2023-03-05T02:25:14.786Z,100208.81
2023-03-05T02:27:43.860Z,100208.47
2023-03-05T02:30:12.450Z,100205.22
2023-03-05T02:32:39.762Z,100202.16
2023-03-05T02:35:07.640Z,100202.97
2023-03-05T02:37:34.891Z,100190.53
2023-03-05T02:40:03.572Z,100192.84
2023-03-05T02:42:33.470Z,100194.16
2023-03-05T02:45:00.948Z,100186.88
2023-03-05T02:47:28.298Z,100181.88
2023-03-05T02:49:55.925Z,100181.06
2023-03-05T02:52:24.017Z,100181.41
2023-03-05T02:54:51.294Z,100192.16
2023-03-05T02:57:19.983Z,100187.88
2023-03-05T02:59:47.875Z,100177.44
2023-03-05T03:02:15.272Z,100183.25
2023-03-05T03:04:42.512Z,100183.06
2023-03-05T03:07:09.776Z,100173.25
2023-03-05T03:09:37.016Z,100187.78
2023-03-05T03:12:04.560Z,100180.53
2023-03-05T03:14:37.730Z,100188.72
2023-03-05T03:17:05.041Z,100173.81
2023-03-05T03:19:32.465Z,100178.47
2023-03-05T03:21:59.968Z,100173.50
2023-03-05T03:24:27.293Z,100174.03
2023-03-05T03:26:54.520Z,100171.81
2023-03-05T03:29:21.790Z,100174.53
2023-03-05T03:31:50.388Z,100177.72
2023-03-05T03:34:18.339Z,100177.00
2023-03-05T03:36:46.070Z,100170.28
2023-03-05T03:39:14.000Z,100172.06
2023-03-05T03:41:42.194Z,100174.91
2023-03-05T03:44:10.668Z,100166.88
2023-03-05T03:46:39.264Z,100163.41
2023-03-05T03:49:09.064Z,100159.00
2023-03-05T03:51:36.325Z,100162.47
2023-03-05T03:54:03.594Z,100148.06
2023-03-05T03:56:30.828Z,100158.94
2023-03-05T03:58:58.115Z,100150.25
2023-03-05T04:01:25.699Z,100146.50
2023-03-05T04:03:52.992Z,100145.81
2023-03-05T04:06:21.620Z,100142.53
2023-03-05T04:08:48.890Z,100153.41
2023-03-05T04:11:19.226Z,100146.75
2023-03-05T04:13:46.779Z,100144.59
2023-03-05T04:16:14.197Z,100133.53
2023-03-05T04:18:41.817Z,100132.41
2023-03-05T04:21:09.632Z,100133.16
2023-03-05T04:23:38.200Z,100137.13
2023-03-05T04:26:05.643Z,100126.88
2023-03-05T04:28:32.977Z,100128.94
2023-03-05T04:31:00.258Z,100118.13
2023-03-05T04:33:27.669Z,100125.50
2023-03-05T04:35:55.131Z,100117.38
2023-03-05T04:38:22.717Z,100123.97
2023-03-05T04:40:51.290Z,100124.63
2023-03-05T04:43:18.556Z,100126.00
2023-03-05T04:45:45.811Z,100122.03
2023-03-05T04:48:13.594Z,100110.22
2023-03-05T04:50:40.869Z,100111.53
2023-03-05T04:53:08.131Z,100115.00
2023-03-05T04:55:35.432Z,100111.94
2023-03-05T04:58:04.158Z,100110.38
2023-03-05T05:00:31.428Z,100110.81
2023-03-05T05:02:58.703Z,100116.13
2023-03-05T05:05:26.847Z,100111.09
2023-03-05T05:07:56.030Z,100117.72
2023-03-05T05:10:23.354Z,100116.09
2023-03-05T05:12:50.598Z,100112.53
2023-03-05T05:15:19.332Z,100114.25
2023-03-05T05:17:46.680Z,100114.13
2023-03-05T05:20:15.050Z,100112.81
2023-03-05T05:22:42.650Z,100113.50
2023-03-05T05:25:10.430Z,100113.50
2023-03-05T05:27:38.265Z,100111.53
2023-03-05T05:30:05.919Z,100110.91
2023-03-05T05:32:34.559Z,100093.72
2023-03-05T05:35:01.912Z,100100.94
2023-03-05T05:37:30.412Z,100095.25
2023-03-05T05:39:57.681Z,100100.41
2023-03-05T05:42:25.718Z,100099.25
2023-03-05T05:44:53.259Z,100091.84
2023-03-05T05:47:20.550Z,100093.78
2023-03-05T05:49:49.188Z,100094.34
2023-03-05T05:52:16.435Z,100100.72
2023-03-05T05:54:44.472Z,100101.59
2023-03-05T05:57:11.747Z,100096.91
2023-03-05T05:59:39.037Z,100111.09
2023-03-05T06:02:07.848Z,100104.19
2023-03-05T06:04:35.246Z,100101.22
2023-03-05T06:07:04.212Z,100098.47
2023-03-05T06:09:31.480Z,100093.50
2023-03-05T06:11:58.890Z,100094.09
2023-03-05T06:14:26.128Z,100082.28
2023-03-05T06:16:53.504Z,100084.88
2023-03-05T06:19:20.815Z,100087.19
2023-03-05T06:21:48.083Z,100081.78
2023-03-05T06:24:16.669Z,100086.84
2023-03-05T06:26:44.258Z,100088.56
2023-03-05T06:29:11.491Z,100092.69
2023-03-05T06:31:39.627Z,100087.50
2023-03-05T06:34:06.904Z,100096.88
2023-03-05T06:36:34.228Z,100090.75
2023-03-05T06:39:01.613Z,100081.47
2023-03-05T06:41:31.836Z,100091.19
2023-03-05T06:44:00.369Z,100092.50
2023-03-05T06:46:28.899Z,100089.16
2023-03-05T06:48:57.174Z,100095.63
2023-03-05T06:51:25.581Z,100092.84
2023-03-05T06:53:53.628Z,100091.13
2023-03-05T06:56:21.518Z,100091.28
2023-03-05T06:58:51.488Z,100092.34
2023-03-05T07:01:19.378Z,100099.88
2023-03-05T07:03:49.280Z,100092.22
2023-03-05T07:06:16.734Z,100105.56
2023-03-05T07:08:44.704Z,100105.56
2023-03-05T07:11:12.852Z,100096.09
2023-03-05T07:13:40.515Z,100102.91
2023-03-05T07:16:10.362Z,100102.34
2023-03-05T07:18:37.679Z,100096.94
2023-03-05T07:21:05.420Z,100098.84
2023-03-05T07:23:32.708Z,100096.81
2023-03-05T07:26:01.598Z,100100.16
2023-03-05T07:28:28.867Z,100091.09
2023-03-05T07:30:57.164Z,100094.88
2023-03-05T07:33:25.930Z,100095.41
2023-03-05T07:35:53.339Z,100095.34
2023-03-05T07:38:20.846Z,100093.59
2023-03-05T07:40:48.201Z,100093.13
2023-03-05T07:43:15.475Z,100092.22
2023-03-05T07:45:43.134Z,100087.28
2023-03-05T07:48:13.519Z,100079.06
2023-03-05T07:50:42.633Z,100090.88
2023-03-05T07:53:09.929Z,100085.97
2023-03-05T07:55:42.836Z,100091.31
2023-03-05T07:58:10.108Z,100085.97
2023-03-05T08:00:37.461Z,100085.97
2023-03-05T08:03:04.831Z,100075.44
2023-03-05T08:05:32.086Z,100080.31
2023-03-05T08:08:00.689Z,100071.66
2023-03-05T08:10:27.974Z,100073.22
2023-03-05T08:12:55.251Z,100073.84
2023-03-05T08:15:22.853Z,100073.84
2023-03-05T08:17:50.095Z,100072.47
2023-03-05T08:20:19.125Z,100078.06
2023-03-05T08:22:46.444Z,100072.59
2023-03-05T08:25:15.027Z,100074.50
2023-03-05T08:27:43.212Z,100061.25
2023-03-05T08:30:12.709Z,100059.16
2023-03-05T08:32:40.028Z,100058.41
2023-03-05T08:35:07.667Z,100060.28
2023-03-05T08:37:34.929Z,100060.53
2023-03-05T08:40:02.308Z,100048.28
2023-03-05T08:42:30.900Z,100047.78
2023-03-05T08:44:58.156Z,100046.69
2023-03-05T08:47:26.844Z,100037.94
2023-03-05T08:49:55.479Z,100037.81
2023-03-05T08:52:22.856Z,100042.25
2023-03-05T08:54:50.167Z,100030.06
2023-03-05T08:57:17.645Z,100031.47
2023-03-05T08:59:46.248Z,100036.19
2023-03-05T09:02:13.577Z,100028.88
2023-03-05T09:04:41.032Z,100038.44
2023-03-05T09:07:08.568Z,100037.72
2023-03-05T09:09:35.926Z,100031.72
2023-03-05T09:12:03.264Z,100026.69
2023-03-05T09:14:30.534Z,100028.31
2023-03-05T09:16:59.157Z,100028.91
2023-03-05T09:19:27.399Z,100022.75
2023-03-05T09:21:56.877Z,100024.44
2023-03-05T09:24:24.380Z,100019.34
2023-03-05T09:26:51.643Z,100021.66
2023-03-05T09:29:18.917Z,100016.38
2023-03-05T09:31:48.551Z,100029.69
2023-03-05T09:34:17.225Z,100013.56
2023-03-05T09:36:44.578Z,100015.19
2023-03-05T09:39:11.858Z,100019.06
2023-03-05T09:41:48.748Z,100021.25
2023-03-05T09:44:23.360Z,100023.28
2023-03-05T09:46:53.210Z,100014.31
2023-03-05T09:49:29.537Z,100010.38
2023-03-05T09:52:02.722Z,100010.16
2023-03-05T09:54:33.673Z,100001.38
2023-03-05T09:57:04.330Z,100002.59
2023-03-05T09:59:35.871Z,99987.47
2023-03-05T10:02:05.888Z,99986.22
2023-03-05T10:04:43.799Z,99983.72
2023-03-05T10:07:16.089Z,99973.66
2023-03-05T10:09:45.728Z,99977.75
2023-03-05T10:12:16.112Z,99979.44
2023-03-05T10:14:43.500Z,99980.59
2023-03-05T10:17:29.391Z,99969.03
2023-03-05T10:20:15.222Z,99954.81
2023-03-05T10:22:54.908Z,99962.00
2023-03-05T10:25:24.889Z,99968.22
2023-03-05T10:27:55.950Z,99963.09
2023-03-05T10:30:28.826Z,99958.44
2023-03-05T10:33:00.780Z,99956.25
2023-03-05T10:35:40.908Z,99955.72
2023-03-05T10:38:32.349Z,99937.31
2023-03-05T10:41:06.519Z,99944.88
2023-03-05T10:43:37.288Z,99933.09
2023-03-05T10:46:05.035Z,99936.44
2023-03-05T10:48:36.310Z,99927.97
2023-03-05T10:51:05.748Z,99929.72
2023-03-05T10:53:36.449Z,99924.28
2023-03-05T10:56:04.413Z,99914.97
2023-03-05T10:58:32.075Z,99917.94
2023-03-05T11:01:04.101Z,99918.22
2023-03-05T11:03:46.989Z,99914.19
2023-03-05T11:06:14.977Z,99914.84
2023-03-05T11:08:43.585Z,99915.81
2023-03-05T11:11:15.800Z,99916.66
2023-03-05T11:13:54.719Z,99925.19
2023-03-05T11:16:23.195Z,99920.44
2023-03-05T11:19:17.950Z,99910.81
2023-03-05T11:21:46.117Z,99917.69
2023-03-05T11:24:15.875Z,99907.59
2023-03-05T11:26:47.109Z,99909.97
2023-03-05T11:29:17.940Z,99895.78
2023-03-05T11:31:45.426Z,99904.00
2023-03-05T11:34:23.340Z,99900.22
2023-03-05T11:37:03.591Z,99899.97
2023-03-05T11:39:35.105Z,99892.22
2023-03-05T11:42:03.681Z,99900.91
2023-03-05T11:44:34.202Z,99890.66
2023-03-05T11:47:04.936Z,99877.41
2023-03-05T11:49:35.188Z,99879.56
2023-03-05T11:52:06.818Z,99883.56
2023-03-05T11:54:40.055Z,99876.28
2023-03-05T11:57:10.592Z,99875.31
2023-03-05T11:59:40.228Z,99871.91
2023-03-05T12:02:18.303Z,99871.09
2023-03-05T12:04:46.981Z,99878.97
2023-03-05T12:07:17.411Z,99872.81
2023-03-05T12:09:47.632Z,99872.63
2023-03-05T12:12:22.988Z,99854.72
2023-03-05T12:14:53.745Z,99859.59
2023-03-05T12:17:25.516Z,99847.38
2023-03-05T12:19:54.490Z,99852.69
2023-03-05T12:22:23.005Z,99839.03
2023-03-05T12:24:52.184Z,99844.69
2023-03-05T12:27:33.141Z,99848.16
2023-03-05T12:30:02.298Z,99823.78
2023-03-05T12:33:02.209Z,99820.81
2023-03-05T12:35:35.877Z,99820.00
2023-03-05T12:38:24.380Z,99822.47
2023-03-05T12:40:53.817Z,99813.31
2023-03-05T12:43:29.352Z,99805.94
2023-03-05T12:46:22.588Z,99809.16
2023-03-05T12:48:49.914Z,99810.91
2023-03-05T12:51:37.667Z,99805.84
2023-03-05T12:54:21.102Z,99807.31
2023-03-05T12:56:50.049Z,99809.31
2023-03-05T12:59:19.832Z,99804.22
2023-03-05T13:01:50.387Z,99798.97
2023-03-05T13:04:21.078Z,99795.69
2023-03-05T13:06:58.178Z,99800.06
2023-03-05T13:09:27.577Z,99793.78
2023-03-05T13:11:57.399Z,99794.31
2023-03-05T13:14:31.045Z,99788.38
2023-03-05T13:16:58.888Z,99788.25
2023-03-05T13:19:26.395Z,99777.53
2023-03-05T13:22:00.789Z,99787.50
2023-03-05T13:24:29.154Z,99778.75
2023-03-05T13:26:58.564Z,99782.09
2023-03-05T13:29:28.173Z,99769.66
2023-03-05T13:31:56.720Z,99776.19
2023-03-05T13:34:26.533Z,99769.66
2023-03-05T13:36:57.862Z,99775.13
2023-03-05T13:39:27.467Z,99773.00
2023-03-05T13:42:03.392Z,99770.16
2023-03-05T13:44:31.086Z,99766.75
2023-03-05T13:47:08.433Z,99760.66
2023-03-05T13:49:36.215Z,99759.94
2023-03-05T13:52:03.537Z,99748.19
2023-03-05T13:54:31.265Z,99750.16
2023-03-05T13:56:59.905Z,99743.09
2023-03-05T13:59:29.514Z,99732.94
2023-03-05T14:01:57.575Z,99735.09
2023-03-05T14:04:25.821Z,99731.66
2023-03-05T14:06:55.812Z,99723.97
2023-03-05T14:09:24.039Z,99716.13
2023-03-05T14:11:58.722Z,99718.00
2023-03-05T14:14:26.693Z,99719.88
2023-03-05T14:16:55.464Z,99720.59
2023-03-05T14:19:34.697Z,99718.19
2023-03-05T14:22:02.190Z,99716.84
2023-03-05T14:24:31.288Z,99738.06
2023-03-05T14:26:59.248Z,99744.28
2023-03-05T14:29:28.263Z,99734.44
2023-03-05T14:31:58.147Z,99736.91
2023-03-05T14:34:27.261Z,99729.06
2023-03-05T14:36:55.162Z,99731.91
2023-03-05T14:39:33.377Z,99722.44
2023-03-05T14:42:19.567Z,99728.03
2023-03-05T14:44:47.367Z,99731.47
2023-03-05T14:47:15.963Z,99737.69
2023-03-05T14:49:43.300Z,99737.31
2023-03-05T14:52:14.708Z,99725.22
2023-03-05T14:54:42.319Z,99728.47
2023-03-05T14:57:15.601Z,99732.09
2023-03-05T14:59:42.850Z,99729.31
2023-03-05T15:02:15.043Z,99734.44
2023-03-05T15:04:45.571Z,99728.19
2023-03-05T15:07:17.625Z,99731.94
2023-03-05T15:09:44.984Z,99738.75
2023-03-05T15:12:13.872Z,99735.66
2023-03-05T15:14:42.141Z,99733.47
2023-03-05T15:17:13.120Z,99725.38
2023-03-05T15:19:40.374Z,99726.06
2023-03-05T15:22:10.169Z,99725.22
2023-03-05T15:24:37.436Z,99723.66
2023-03-05T15:27:05.764Z,99718.34
2023-03-05T15:29:33.283Z,99709.56
2023-03-05T15:32:04.905Z,99712.75
2023-03-05T15:34:33.616Z,99714.63
2023-03-05T15:37:01.360Z,99715.91
2023-03-05T15:39:30.077Z,99708.59
2023-03-05T15:41:57.678Z,99703.97
2023-03-05T15:44:26.490Z,99707.56
2023-03-05T15:46:53.805Z,99707.16
2023-03-05T15:49:22.623Z,99702.75
2023-03-05T15:51:50.183Z,99704.75
2023-03-05T15:54:17.435Z,99701.03
2023-03-05T15:56:48.042Z,99707.00
2023-03-05T15:59:15.355Z,99698.22
2023-03-05T16:01:45.593Z,99688.63
2023-03-05T16:04:13.135Z,99699.56
2023-03-05T16:06:40.432Z,99694.88
2023-03-05T16:09:07.741Z,99683.09
2023-03-05T16:11:36.712Z,99696.75
2023-03-05T16:14:07.491Z,99694.25
2023-03-05T16:16:35.315Z,99692.56
2023-03-05T16:19:03.360Z,99691.91
2023-03-05T16:21:31.044Z,99688.88
2023-03-05T16:23:59.477Z,99690.56
2023-03-05T16:26:27.039Z,99678.56
2023-03-05T16:28:54.488Z,99675.16
2023-03-05T16:31:23.162Z,99676.63
2023-03-05T16:33:50.443Z,99677.97
2023-03-05T16:36:20.642Z,99675.53
2023-03-05T16:38:48.496Z,99671.69
2023-03-05T16:41:16.837Z,99673.81
2023-03-05T16:43:44.941Z,99670.00
2023-03-05T16:46:12.757Z,99668.84
2023-03-05T16:48:42.452Z,99663.13
2023-03-05T16:51:09.889Z,99680.19
2023-03-05T16:53:37.250Z,99670.47
2023-03-05T16:56:05.137Z,99677.78
2023-03-05T16:58:33.052Z,99674.34
2023-03-05T17:01:00.733Z,99674.97
2023-03-05T17:03:30.602Z,99671.69
2023-03-05T17:05:59.511Z,99670.84
2023-03-05T17:08:28.920Z,99674.91
2023-03-05T17:10:56.156Z,99675.44
2023-03-05T17:13:23.455Z,99671.00
2023-03-05T17:15:51.846Z,99683.19
2023-03-05T17:18:21.771Z,99684.66
2023-03-05T17:20:49.028Z,99678.72
2023-03-05T17:23:17.613Z,99677.88
2023-03-05T17:25:44.908Z,99667.66
2023-03-05T17:28:12.230Z,99667.66
2023-03-05T17:30:39.733Z,99670.31
2023-03-05T17:33:07.103Z,99663.13
2023-03-05T17:35:35.176Z,99665.50
2023-03-05T17:38:03.279Z,99673.50
2023-03-05T17:40:32.195Z,99668.44
2023-03-05T17:42:59.496Z,99674.44
2023-03-05T17:45:27.028Z,99680.84
2023-03-05T17:47:54.370Z,99679.34
2023-03-05T17:50:21.846Z,99683.47
2023-03-05T17:52:49.257Z,99675.78
2023-03-05T17:55:17.678Z,99676.00
2023-03-05T17:57:47.805Z,99682.16
2023-03-05T18:00:16.525Z,99678.44
2023-03-05T18:02:43.861Z,99677.41
2023-03-05T18:05:11.441Z,99676.47
2023-03-05T18:07:38.845Z,99677.19
2023-03-05T18:10:07.123Z,99673.97
2023-03-05T18:12:34.525Z,99671.63
2023-03-05T18:15:03.112Z,99675.53
2023-03-05T18:17:30.363Z,99668.63
2023-03-05T18:19:57.734Z,99674.59
2023-03-05T18:22:25.001Z,99675.63
2023-03-05T18:24:52.285Z,99677.88
2023-03-05T18:27:22.973Z,99677.81
2023-03-05T18:29:53.902Z,99669.47
2023-03-05T18:32:24.261Z,99669.53
2023-03-05T18:34:51.895Z,99668.69
2023-03-05T18:37:19.368Z,99665.78
2023-03-05T18:39:46.629Z,99680.03
2023-03-05T18:42:14.639Z,99680.72
2023-03-05T18:44:41.953Z,99673.03
2023-03-05T18:47:09.253Z,99681.00
2023-03-05T18:49:37.867Z,99688.41
2023-03-05T18:52:05.299Z,99684.16
2023-03-05T18:54:33.405Z,99681.56
2023-03-05T18:57:00.717Z,99688.50
2023-03-05T18:59:29.555Z,99693.03
2023-03-05T19:01:56.838Z,99695.16
2023-03-05T19:04:24.463Z,99690.22
2023-03-05T19:06:53.062Z,99690.59
2023-03-05T19:09:30.883Z,99684.97
2023-03-05T19:11:58.178Z,99685.31
2023-03-05T19:14:25.604Z,99680.38
2023-03-05T19:16:52.875Z,99676.47
2023-03-05T19:19:23.566Z,99677.88
2023-03-05T19:21:53.402Z,99673.19
2023-03-05T19:24:23.171Z,99674.41
2023-03-05T19:26:55.070Z,99672.72
2023-03-05T19:29:22.846Z,99673.19
2023-03-05T19:31:50.230Z,99666.97
2023-03-05T19:34:17.523Z,99662.69
2023-03-05T19:36:44.887Z,99669.06
2023-03-05T19:39:12.175Z,99676.56
2023-03-05T19:41:40.921Z,99668.22
2023-03-05T19:44:08.221Z,99666.13
2023-03-05T19:46:35.613Z,99653.44
2023-03-05T19:49:02.940Z,99653.84
2023-03-05T19:51:30.303Z,99645.97
2023-03-05T19:53:57.562Z,99640.97
2023-03-05T19:56:25.125Z,99634.41
2023-03-05T19:58:53.803Z,99636.59
2023-03-05T20:01:22.436Z,99638.13
2023-03-05T20:03:50.677Z,99639.47
2023-03-05T20:06:18.282Z,99638.28
2023-03-05T20:08:45.649Z,99638.75
2023-03-05T20:11:13.681Z,99638.16
2023-03-05T20:13:41.648Z,99637.72
2023-03-05T20:16:15.687Z,99624.91
2023-03-05T20:18:43.011Z,99631.47
2023-03-05T20:21:10.359Z,99630.84
2023-03-05T20:23:37.888Z,99632.69
2023-03-05T20:26:06.640Z,99622.25
2023-03-05T20:28:34.353Z,99615.84
2023-03-05T20:31:02.203Z,99615.94
2023-03-05T20:33:31.273Z,99612.34
2023-03-05T20:35:58.615Z,99612.03
2023-03-05T20:38:28.474Z,99611.66
2023-03-05T20:40:58.387Z,99617.56
2023-03-05T20:43:26.746Z,99599.09
2023-03-05T20:45:54.242Z,99598.09
2023-03-05T20:48:21.706Z,99602.09
2023-03-05T20:50:50.377Z,99597.16
2023-03-05T20:53:17.993Z,99595.13
2023-03-05T20:55:45.405Z,99592.16
2023-03-05T20:58:12.957Z,99591.88
2023-03-05T21:00:44.958Z,99574.97
2023-03-05T21:03:12.671Z,99577.53
2023-03-05T21:05:40.057Z,99574.47
2023-03-05T21:08:08.671Z,99560.53
2023-03-05T21:10:36.116Z,99572.59
2023-03-05T21:13:03.415Z,99573.78
2023-03-05T21:15:31.316Z,99569.88
2023-03-05T21:17:58.968Z,99565.06
2023-03-05T21:20:28.062Z,99557.09
2023-03-05T21:22:56.029Z,99561.22
2023-03-05T21:25:27.366Z,99557.34
2023-03-05T21:27:55.636Z,99558.97
2023-03-05T21:30:23.210Z,99547.53
2023-03-05T21:32:50.523Z,99549.47
2023-03-05T21:35:18.864Z,99548.06
2023-03-05T21:37:46.318Z,99547.19
2023-03-05T21:40:14.913Z,99551.81
2023-03-05T21:42:44.397Z,99540.72
2023-03-05T22:02:10.661Z,99516.75
2023-03-05T22:04:38.088Z,99521.19
2023-03-05T22:07:06.520Z,99508.16
2023-03-05T22:09:33.943Z,99510.75
2023-03-05T22:12:01.898Z,99508.03
2023-03-05T22:14:29.134Z,99504.72
2023-03-05T22:17:01.646Z,99502.88
2023-03-05T22:19:30.435Z,99504.91
2023-03-05T22:21:57.898Z,99506.16
2023-03-05T22:24:25.441Z,99500.22
2023-03-05T22:26:52.862Z,99498.66
2023-03-05T22:29:20.102Z,99494.84
2023-03-05T22:31:47.374Z,99489.78
2023-03-05T22:34:14.615Z,99492.50
2023-03-05T22:36:43.193Z,99483.69
2023-03-05T22:39:10.508Z,99478.00
2023-03-05T22:41:37.752Z,99482.03
2023-03-05T22:44:05.116Z,99475.47
2023-03-05T22:46:32.394Z,99470.63
2023-03-05T22:48:59.660Z,99478.28
2023-03-05T22:51:26.950Z,99474.63
2023-03-05T22:53:55.732Z,99474.63
2023-03-05T22:56:23.004Z,99480.63
2023-03-05T22:58:50.292Z,99473.16
2023-03-05T23:01:18.568Z,99478.66
2023-03-05T23:03:46.945Z,99479.28
2023-03-05T23:06:14.291Z,99479.59
2023-03-05T23:08:41.578Z,99478.94
2023-03-05T23:11:15.693Z,99471.34
2023-03-05T23:13:42.945Z,99469.31
2023-03-05T23:16:10.473Z,99467.13
2023-03-05T23:18:38.236Z,99466.09
2023-03-05T23:21:05.650Z,99459.00
2023-03-05T23:23:33.259Z,99459.56
2023-03-05T23:26:00.550Z,99456.16
2023-03-05T23:28:29.182Z,99465.75
2023-03-05T23:30:58.041Z,99465.25
2023-03-05T23:33:25.315Z,99464.72
2023-03-05T23:35:53.549Z,99464.22
2023-03-05T23:38:21.155Z,99470.56
2023-03-05T23:40:49.500Z,99468.75
2023-03-05T23:43:17.229Z,99460.22
2023-03-05T23:45:48.028Z,99456.53
2023-03-05T23:48:16.065Z,99467.31
2023-03-05T23:50:44.418Z,99469.00
2023-03-05T23:53:12.263Z,99456.84
2023-03-05T23:55:42.384Z,99457.19
2023-03-05T23:58:09.814Z,99457.47
